Terminal Aerodrome Forecast
Issued by NWS Sterling, VA

Home | Current Version | Previous Version | Text Only | Print | Product List | Glossary On
Versions: 1 2 3 4 5 6 7 8 9 10 11 12 13 14 15 16 17 18
000
FTUS41 KLWX 232335
TAFMRB
TAF
KMRB 232335Z 2400/2424 14012KT P6SM OVC040
     FM240100 14012G31KT P6SM OVC035
     FM240200 15013G34KT 3SM SHRA OVC030
     FM240400 16012G33KT 4SM SHRA OVC020
     FM240700 18009KT P6SM SHRA OVC020
     FM240900 19007KT P6SM BKN035
     FM241300 22005KT P6SM SCT130=

USA.gov is the U.S. government's official web portal to all federal, state and local government web resources and services.